Time;durP1;ratioP1;P1;durP2;ratioP2;P2;SDS_P1;SDS_P2;PMS_P1;PMS_P2;Temp;Humidity;BMP_temperature;BMP_pressure;BME280_temperature;BME280_humidity;BME280_pressure;Samples;Min_cycle;Max_cycle;Signal;HPM_P1;HPM_P2
2023/04/27 00:02:02;;;;;;;16.05;6.38;;;4.40;99.90;;;;;;5059996;28;20021;-71
2023/04/27 00:04:27;;;;;;;13.90;6.88;;;4.40;99.90;;;;;;5059637;28;20037;-69
2023/04/27 00:06:53;;;;;;;17.35;6.95;;;4.30;99.90;;;;;;5061111;28;20021;-70
2023/04/27 00:09:19;;;;;;;18.55;6.72;;;4.30;99.90;;;;;;5059994;28;20032;-69
2023/04/27 00:11:44;;;;;;;14.70;6.20;;;4.30;99.90;;;;;;5060621;28;20027;-71
2023/04/27 00:14:10;;;;;;;15.48;7.18;;;4.30;99.90;;;;;;5060163;28;20041;-71
2023/04/27 00:16:36;;;;;;;15.27;7.38;;;4.30;99.90;;;;;;5061046;28;20059;-71
2023/04/27 00:19:01;;;;;;;17.35;6.53;;;4.20;99.90;;;;;;5060606;28;20040;-70
2023/04/27 00:21:27;;;;;;;19.13;7.00;;;4.20;99.90;;;;;;5061116;28;20102;-69
2023/04/27 00:24:00;;;;;;;18.63;6.82;;;4.20;99.90;;;;;;5060969;28;20121;-70
2023/04/27 00:26:25;;;;;;;19.08;6.38;;;4.10;99.90;;;;;;5060932;28;20025;-71
2023/04/27 00:28:51;;;;;;;16.83;7.03;;;4.10;99.90;;;;;;5060975;28;20111;-70
2023/04/27 00:31:17;;;;;;;17.13;6.45;;;4.00;99.90;;;;;;5060608;28;20575;-70
2023/04/27 00:33:43;;;;;;;15.70;6.50;;;4.00;99.90;;;;;;5061043;28;20032;-71
2023/04/27 00:36:08;;;;;;;14.32;6.88;;;4.00;99.90;;;;;;5061336;28;20025;-71
2023/04/27 00:38:34;;;;;;;16.17;6.25;;;4.00;99.90;;;;;;5059298;28;20033;-69
2023/04/27 00:41:04;;;;;;;17.02;7.25;;;4.00;99.90;;;;;;5059630;28;20028;-70
2023/04/27 00:43:31;;;;;;;15.82;7.10;;;3.90;99.90;;;;;;5058775;28;20033;-70
2023/04/27 00:45:57;;;;;;;14.57;6.75;;;3.90;99.90;;;;;;5058878;28;20045;-72
2023/04/27 00:48:23;;;;;;;16.75;7.43;;;3.90;99.90;;;;;;5060835;28;20017;-70
2023/04/27 00:50:48;;;;;;;17.52;7.55;;;3.90;99.90;;;;;;5060612;28;20490;-69
2023/04/27 00:53:14;;;;;;;19.90;8.25;;;3.90;99.90;;;;;;5060380;28;20048;-73
2023/04/27 00:55:40;;;;;;;17.10;8.07;;;3.90;99.90;;;;;;5061720;28;20025;-70
2023/04/27 00:58:05;;;;;;;22.48;7.82;;;3.80;99.90;;;;;;5064863;28;20035;-68
2023/04/27 01:00:31;;;;;;;24.98;8.45;;;3.80;99.90;;;;;;5064002;28;20158;-71
2023/04/27 01:02:57;;;;;;;18.10;8.38;;;3.80;99.90;;;;;;5064295;28;20028;-69
2023/04/27 01:05:25;;;;;;;22.95;8.63;;;3.80;99.90;;;;;;5063654;28;20088;-70
2023/04/27 01:07:51;;;;;;;20.80;8.02;;;3.70;99.90;;;;;;5063731;28;20845;-70
2023/04/27 01:10:17;;;;;;;19.42;8.50;;;3.70;99.90;;;;;;5064210;28;20024;-69
2023/04/27 01:12:42;;;;;;;18.23;8.13;;;3.70;99.90;;;;;;5064197;28;20036;-68
2023/04/27 01:15:09;;;;;;;24.42;8.85;;;3.70;99.90;;;;;;5064014;28;20536;-70
2023/04/27 01:17:34;;;;;;;18.27;8.57;;;3.70;99.90;;;;;;5063741;28;20059;-70
2023/04/27 01:20:01;;;;;;;22.77;9.13;;;3.70;99.90;;;;;;5063509;28;20016;-70
2023/04/27 01:22:26;;;;;;;25.33;8.77;;;3.70;99.90;;;;;;5063291;28;20021;-70
2023/04/27 01:24:52;;;;;;;23.38;8.77;;;3.70;99.90;;;;;;5063966;28;20043;-68
2023/04/27 01:27:18;;;;;;;17.15;8.07;;;3.60;99.90;;;;;;5063714;28;20028;-69
2023/04/27 01:29:44;;;;;;;20.05;8.93;;;3.60;99.90;;;;;;5063643;28;20079;-69
2023/04/27 01:32:11;;;;;;;21.00;9.25;;;3.60;99.90;;;;;;5061397;28;20092;-71
2023/04/27 01:34:36;;;;;;;22.38;9.48;;;3.60;99.90;;;;;;5062672;28;20017;-70
2023/04/27 01:37:02;;;;;;;18.75;8.02;;;3.60;99.90;;;;;;5062637;28;20033;-69
2023/04/27 01:39:28;;;;;;;19.15;8.10;;;3.50;99.90;;;;;;5062819;28;20040;-68
2023/04/27 01:41:53;;;;;;;19.25;8.13;;;3.60;99.90;;;;;;5061579;28;20021;-71
2023/04/27 01:44:19;;;;;;;20.10;7.95;;;3.50;99.90;;;;;;5060684;28;20037;-69
2023/04/27 01:46:45;;;;;;;22.40;8.57;;;3.50;99.90;;;;;;5061060;28;20450;-71
2023/04/27 01:49:12;;;;;;;23.05;8.50;;;3.50;99.90;;;;;;5062153;28;20048;-69
2023/04/27 01:51:40;;;;;;;21.02;8.57;;;3.50;99.90;;;;;;5062618;28;20407;-70
2023/04/27 01:54:06;;;;;;;14.68;7.55;;;3.50;99.90;;;;;;5061991;28;20041;-70
2023/04/27 01:56:33;;;;;;;20.20;8.23;;;3.50;99.90;;;;;;5059961;28;20067;-70
2023/04/27 01:58:58;;;;;;;22.80;7.95;;;3.40;99.90;;;;;;5062321;28;20058;-70
2023/04/27 02:01:24;;;;;;;19.45;8.02;;;3.50;99.90;;;;;;5061753;28;20052;-70
2023/04/27 02:03:49;;;;;;;18.35;8.02;;;3.40;99.90;;;;;;5061625;28;20028;-70
2023/04/27 02:06:15;;;;;;;22.83;8.35;;;3.40;99.90;;;;;;5062338;28;20025;-70
2023/04/27 02:08:41;;;;;;;18.90;7.93;;;3.40;99.90;;;;;;5062233;28;20021;-69
2023/04/27 02:11:06;;;;;;;18.52;8.13;;;3.40;99.90;;;;;;5061103;28;20029;-69
2023/04/27 02:13:32;;;;;;;21.20;7.75;;;3.30;99.90;;;;;;5060307;28;20028;-72
2023/04/27 02:16:00;;;;;;;14.68;7.47;;;3.30;99.90;;;;;;5061735;28;20760;-70
2023/04/27 02:18:26;;;;;;;22.58;8.05;;;3.20;99.90;;;;;;5061467;28;20021;-69
2023/04/27 02:20:52;;;;;;;21.70;7.15;;;3.20;99.90;;;;;;5061706;28;20027;-72
2023/04/27 02:23:17;;;;;;;22.88;8.13;;;3.20;99.90;;;;;;5060993;28;20044;-70
2023/04/27 02:25:45;;;;;;;19.80;8.23;;;3.20;99.90;;;;;;5060988;28;20060;-70
2023/04/27 02:28:12;;;;;;;23.38;7.93;;;3.20;99.90;;;;;;5061967;28;20029;-70
2023/04/27 02:30:38;;;;;;;19.90;8.27;;;3.20;99.90;;;;;;5061005;28;20080;-70
2023/04/27 02:33:04;;;;;;;25.50;9.02;;;3.20;99.90;;;;;;5060543;28;20036;-71
2023/04/27 02:35:32;;;;;;;16.92;8.43;;;3.20;99.90;;;;;;5060078;28;20014;-70
2023/04/27 02:37:57;;;;;;;19.83;8.07;;;3.20;99.90;;;;;;5061349;28;20052;-71
2023/04/27 02:40:23;;;;;;;15.13;7.40;;;3.20;99.90;;;;;;5061256;28;20363;-70
2023/04/27 02:42:48;;;;;;;23.92;8.82;;;3.10;99.90;;;;;;5061532;28;20032;-70
2023/04/27 02:45:14;;;;;;;19.42;8.38;;;3.10;99.90;;;;;;5059850;28;20060;-71
2023/04/27 02:47:40;;;;;;;18.90;8.15;;;3.10;99.90;;;;;;5061613;28;20626;-71
2023/04/27 02:50:06;;;;;;;21.25;8.95;;;3.10;99.90;;;;;;5061580;28;20029;-69
2023/04/27 02:52:32;;;;;;;17.75;8.98;;;3.10;99.90;;;;;;5060827;28;20111;-71
2023/04/27 02:54:57;;;;;;;17.67;8.30;;;3.10;99.90;;;;;;5059938;28;20784;-71
2023/04/27 02:57:23;;;;;;;19.80;9.30;;;3.10;99.90;;;;;;5058877;28;20027;-70
2023/04/27 02:59:49;;;;;;;22.35;9.02;;;3.10;99.90;;;;;;5059559;28;20025;-69
2023/04/27 03:02:15;;;;;;;19.02;8.02;;;3.10;99.90;;;;;;5061065;28;20528;-71
2023/04/27 03:04:40;;;;;;;25.45;8.35;;;3.10;99.90;;;;;;5059637;28;20048;-71
2023/04/27 03:07:06;;;;;;;18.92;8.05;;;3.10;99.90;;;;;;5059803;28;20025;-73
2023/04/27 03:09:32;;;;;;;19.80;8.60;;;3.10;99.90;;;;;;5060872;28;20021;-72
2023/04/27 03:11:57;;;;;;;19.70;8.15;;;3.10;99.90;;;;;;5060751;28;20025;-71
2023/04/27 03:14:23;;;;;;;18.88;7.90;;;3.10;99.90;;;;;;5060643;28;20048;-67
2023/04/27 03:16:48;;;;;;;25.67;8.32;;;3.10;99.90;;;;;;5060818;28;20031;-70
2023/04/27 03:19:14;;;;;;;22.75;8.45;;;3.00;99.90;;;;;;5059479;28;20059;-69
2023/04/27 03:21:40;;;;;;;19.90;7.68;;;3.00;99.90;;;;;;5060740;28;20029;-69
2023/04/27 03:24:06;;;;;;;19.35;7.80;;;3.00;99.90;;;;;;5060650;28;20024;-70
2023/04/27 03:26:31;;;;;;;23.27;8.60;;;3.00;99.90;;;;;;5060425;28;20104;-68
2023/04/27 03:28:57;;;;;;;25.58;8.82;;;3.00;99.90;;;;;;5060615;28;20029;-70
2023/04/27 03:31:22;;;;;;;17.60;7.68;;;2.90;99.90;;;;;;5058906;28;20093;-69
2023/04/27 03:33:48;;;;;;;23.30;7.68;;;2.90;99.90;;;;;;5060221;28;20063;-68
2023/04/27 03:36:14;;;;;;;22.25;8.60;;;2.90;99.90;;;;;;5060914;28;20033;-70
2023/04/27 03:38:39;;;;;;;23.40;8.18;;;2.90;99.90;;;;;;5059334;28;20029;-70
2023/04/27 03:41:05;;;;;;;18.55;7.57;;;2.90;99.90;;;;;;5060433;28;20035;-70
2023/04/27 03:43:30;;;;;;;19.42;7.72;;;2.90;99.90;;;;;;5059044;28;20025;-69
2023/04/27 03:45:56;;;;;;;24.05;8.48;;;2.90;99.90;;;;;;5059784;28;20063;-69
2023/04/27 03:48:22;;;;;;;21.38;8.90;;;2.80;99.90;;;;;;5060773;28;20048;-70
2023/04/27 03:50:48;;;;;;;24.67;8.07;;;2.80;99.90;;;;;;5059028;28;20092;-70
2023/04/27 03:53:14;;;;;;;23.58;8.13;;;2.80;99.90;;;;;;5060241;28;20025;-70
2023/04/27 03:55:42;;;;;;;21.77;8.50;;;2.80;99.90;;;;;;5060707;28;20025;-70
2023/04/27 03:58:09;;;;;;;17.65;7.82;;;2.80;99.90;;;;;;5060195;28;20029;-69
2023/04/27 04:00:35;;;;;;;23.08;8.23;;;2.80;99.90;;;;;;5059324;28;20019;-70
2023/04/27 04:03:01;;;;;;;26.05;8.52;;;2.80;99.90;;;;;;5060413;28;20035;-69
2023/04/27 04:05:26;;;;;;;18.10;7.78;;;2.80;99.90;;;;;;5059096;28;20040;-69
2023/04/27 04:07:52;;;;;;;21.85;8.20;;;2.80;99.90;;;;;;5059931;28;20047;-71
2023/04/27 04:10:18;;;;;;;25.10;8.40;;;2.80;99.90;;;;;;5060337;28;20078;-72
2023/04/27 04:12:43;;;;;;;23.88;8.20;;;2.70;99.90;;;;;;5059818;28;20037;-69
2023/04/27 04:15:10;;;;;;;20.73;7.72;;;2.80;99.90;;;;;;5059389;28;20033;-69
2023/04/27 04:17:35;;;;;;;25.73;8.15;;;2.80;99.90;;;;;;5059993;28;20039;-68
2023/04/27 04:20:05;;;;;;;24.45;8.68;;;2.70;99.90;;;;;;5059929;28;20093;-71
2023/04/27 04:22:31;;;;;;;21.20;8.43;;;2.70;99.90;;;;;;5058375;28;20099;-70
2023/04/27 04:24:56;;;;;;;21.75;8.43;;;2.70;99.90;;;;;;5060034;28;20041;-70
2023/04/27 04:27:22;;;;;;;20.20;8.85;;;2.70;99.90;;;;;;5060689;28;20025;-70
2023/04/27 04:29:48;;;;;;;20.63;8.65;;;2.70;99.90;;;;;;5059242;28;20036;-71
2023/04/27 04:32:16;;;;;;;21.75;8.13;;;2.70;99.90;;;;;;5064462;28;20029;-69
2023/04/27 04:34:42;;;;;;;22.25;8.50;;;2.70;99.90;;;;;;5065109;28;20111;-70
2023/04/27 04:37:07;;;;;;;18.08;8.30;;;2.70;99.90;;;;;;5064829;28;20071;-69
2023/04/27 04:39:33;;;;;;;19.90;7.63;;;2.70;99.90;;;;;;5064911;28;20107;-70
2023/04/27 04:41:58;;;;;;;25.58;8.38;;;2.70;99.90;;;;;;5063284;28;20040;-69
2023/04/27 04:44:24;;;;;;;24.45;8.18;;;2.80;99.90;;;;;;5064725;28;20056;-68
2023/04/27 04:46:50;;;;;;;23.15;8.90;;;2.80;99.90;;;;;;5064754;28;20036;-70
2023/04/27 04:49:17;;;;;;;23.98;9.23;;;2.80;99.90;;;;;;5064432;28;20047;-70
2023/04/27 04:51:44;;;;;;;24.42;9.32;;;2.80;99.90;;;;;;5061897;28;20476;-69
2023/04/27 04:54:10;;;;;;;27.42;9.75;;;2.90;99.90;;;;;;5063457;28;20029;-70
2023/04/27 04:56:36;;;;;;;23.70;9.20;;;2.90;99.90;;;;;;5064235;28;20029;-70
2023/04/27 04:59:02;;;;;;;23.00;8.95;;;3.00;99.90;;;;;;5064066;28;20051;-70
2023/04/27 05:01:28;;;;;;;17.95;8.20;;;3.00;99.90;;;;;;5063005;28;20025;-68
2023/04/27 05:03:53;;;;;;;21.90;8.50;;;3.00;99.90;;;;;;5060162;28;20752;-69
2023/04/27 05:06:19;;;;;;;21.42;9.38;;;3.20;99.90;;;;;;5064013;28;20057;-69
2023/04/27 05:08:45;;;;;;;24.83;9.05;;;3.20;99.90;;;;;;5064064;28;20155;-70
2023/04/27 05:11:14;;;;;;;22.65;9.15;;;3.20;99.90;;;;;;5061020;28;20032;-69
2023/04/27 05:13:40;;;;;;;25.63;9.98;;;3.30;99.90;;;;;;5062102;28;20397;-69
2023/04/27 05:16:06;;;;;;;20.23;8.68;;;3.40;99.90;;;;;;5052015;28;20037;-70
2023/04/27 05:18:33;;;;;;;22.88;9.80;;;3.50;99.90;;;;;;5059017;28;20116;-69
2023/04/27 05:20:59;;;;;;;22.67;9.10;;;3.60;99.90;;;;;;5062609;28;20051;-69
2023/04/27 05:23:25;;;;;;;32.88;10.57;;;3.70;99.90;;;;;;5063396;28;20029;-70
2023/04/27 05:25:50;;;;;;;26.77;9.68;;;3.70;99.90;;;;;;5063173;28;20040;-68
2023/04/27 05:28:16;;;;;;;20.90;9.48;;;3.80;99.90;;;;;;5061157;28;20029;-69
2023/04/27 05:30:42;;;;;;;24.38;10.27;;;3.90;99.90;;;;;;5061700;28;20051;-69
2023/04/27 05:33:13;;;;;;;28.05;9.75;;;3.90;99.90;;;;;;5056647;28;20066;-69
2023/04/27 05:35:38;;;;;;;23.10;9.43;;;3.90;99.90;;;;;;5057975;28;20065;-67
2023/04/27 05:38:04;;;;;;;20.63;9.20;;;4.00;99.90;;;;;;5062092;28;20029;-66
2023/04/27 05:40:30;;;;;;;20.73;9.57;;;4.00;99.90;;;;;;5061822;28;20021;-69
2023/04/27 05:42:56;;;;;;;21.55;9.68;;;4.10;99.90;;;;;;5062929;28;20021;-67
2023/04/27 05:45:21;;;;;;;22.35;9.45;;;4.20;99.90;;;;;;5063246;28;20049;-69
2023/04/27 05:47:47;;;;;;;25.75;8.57;;;4.20;99.90;;;;;;5063832;28;20064;-68
2023/04/27 05:50:13;;;;;;;19.40;8.45;;;4.30;99.90;;;;;;5064073;28;20021;-70
2023/04/27 05:52:39;;;;;;;22.33;8.43;;;4.30;99.90;;;;;;5063592;28;20025;-69
2023/04/27 05:55:06;;;;;;;19.92;7.65;;;4.40;99.90;;;;;;5063445;28;20025;-69
2023/04/27 05:57:32;;;;;;;17.08;7.47;;;4.50;99.90;;;;;;5063680;28;20773;-69
2023/04/27 05:59:57;;;;;;;17.38;7.97;;;4.50;99.90;;;;;;5062214;28;20021;-65
2023/04/27 06:02:23;;;;;;;18.90;7.50;;;4.60;99.90;;;;;;5063482;28;20027;-69
2023/04/27 06:04:48;;;;;;;15.48;6.95;;;4.70;99.90;;;;;;5063271;28;20045;-69
2023/04/27 06:07:15;;;;;;;18.30;6.68;;;4.80;99.90;;;;;;5063136;28;20021;-69
2023/04/27 06:09:41;;;;;;;15.90;7.07;;;4.90;99.90;;;;;;5063665;28;20098;-69
2023/04/27 06:12:07;;;;;;;16.73;6.25;;;4.90;99.90;;;;;;5063010;28;20072;-69
2023/04/27 06:14:35;;;;;;;17.98;6.78;;;5.00;99.90;;;;;;5062827;28;20103;-69
2023/04/27 06:17:01;;;;;;;12.25;5.72;;;5.10;99.90;;;;;;5063156;28;20023;-69
2023/04/27 06:19:26;;;;;;;15.20;6.35;;;5.10;99.90;;;;;;5063082;28;20025;-69
2023/04/27 06:21:54;;;;;;;14.05;5.80;;;5.30;99.90;;;;;;5062878;28;20035;-69
2023/04/27 06:24:20;;;;;;;13.32;6.10;;;5.20;99.90;;;;;;5062687;28;20044;-66
2023/04/27 06:26:45;;;;;;;17.70;6.10;;;5.40;99.90;;;;;;5063143;28;20033;-67
2023/04/27 06:29:11;;;;;;;17.20;5.85;;;5.40;99.90;;;;;;5063044;28;20078;-70
2023/04/27 06:31:36;;;;;;;13.55;5.72;;;5.60;99.90;;;;;;5060522;28;20033;-68
2023/04/27 06:34:03;;;;;;;19.77;6.57;;;5.60;99.90;;;;;;5061594;28;20039;-70
2023/04/27 06:36:28;;;;;;;11.65;5.35;;;5.70;99.90;;;;;;5060496;28;20111;-70
2023/04/27 06:38:55;;;;;;;15.20;5.80;;;5.80;99.90;;;;;;5062003;28;20474;-69
2023/04/27 06:41:25;;;;;;;9.20;4.80;;;5.90;99.90;;;;;;5061831;28;20040;-70
2023/04/27 06:43:52;;;;;;;14.80;5.65;;;6.10;99.90;;;;;;5061339;28;20028;-68
2023/04/27 06:46:18;;;;;;;11.65;5.28;;;6.10;99.90;;;;;;5062474;28;20060;-68
2023/04/27 06:48:44;;;;;;;12.75;5.57;;;6.10;99.90;;;;;;5056723;28;20028;-68
2023/04/27 06:51:10;;;;;;;12.93;5.40;;;6.20;99.90;;;;;;5062410;28;20036;-70
2023/04/27 06:53:35;;;;;;;10.63;5.00;;;6.30;99.90;;;;;;5059792;28;20025;-67
2023/04/27 06:56:01;;;;;;;11.30;5.55;;;6.30;99.90;;;;;;5058709;28;20059;-68
2023/04/27 06:58:27;;;;;;;12.02;5.25;;;6.40;99.90;;;;;;5060985;28;20111;-69
2023/04/27 07:00:53;;;;;;;22.70;4.95;;;6.50;99.90;;;;;;5060033;28;20080;-69
2023/04/27 07:03:20;;;;;;;11.50;5.30;;;6.60;99.90;;;;;;5059636;28;20029;-69
2023/04/27 07:05:47;;;;;;;12.25;5.47;;;6.70;99.90;;;;;;5060000;28;20120;-68
2023/04/27 07:08:13;;;;;;;12.05;5.30;;;6.80;99.90;;;;;;5061408;28;20029;-68
2023/04/27 07:10:39;;;;;;;9.90;4.85;;;6.80;99.90;;;;;;5061724;28;20049;-69
2023/04/27 07:13:05;;;;;;;13.73;5.18;;;6.90;99.90;;;;;;5060867;28;20025;-69
2023/04/27 07:15:31;;;;;;;8.88;4.68;;;7.00;99.90;;;;;;5059503;28;20028;-69
2023/04/27 07:17:56;;;;;;;12.68;4.55;;;7.10;99.90;;;;;;5060875;28;20092;-67
2023/04/27 07:20:22;;;;;;;12.50;4.90;;;7.10;99.90;;;;;;5060383;28;20081;-68
2023/04/27 07:22:48;;;;;;;10.15;5.05;;;7.20;99.90;;;;;;5061644;28;20052;-68
2023/04/27 07:25:13;;;;;;;10.70;4.90;;;7.30;99.90;;;;;;5061867;28;20479;-69
2023/04/27 07:27:40;;;;;;;12.07;5.35;;;7.40;99.90;;;;;;5062287;28;20031;-68
2023/04/27 07:30:08;;;;;;;12.70;4.43;;;7.50;99.90;;;;;;5061104;28;20033;-67
2023/04/27 07:32:35;;;;;;;10.70;4.40;;;7.60;99.90;;;;;;5061153;28;20032;-66
2023/04/27 07:35:01;;;;;;;13.82;4.50;;;7.70;99.90;;;;;;5061080;28;20343;-67
2023/04/27 07:37:27;;;;;;;11.68;4.22;;;7.80;99.90;;;;;;5059320;28;20033;-67
2023/04/27 07:39:53;;;;;;;11.90;3.80;;;7.90;99.90;;;;;;5060433;28;20040;-68
2023/04/27 07:42:21;;;;;;;10.73;3.92;;;8.00;99.90;;;;;;5055582;28;20075;-68
2023/04/27 07:44:49;;;;;;;9.00;3.53;;;8.10;99.90;;;;;;5059677;28;20056;-66
2023/04/27 07:47:16;;;;;;;8.70;3.30;;;8.20;99.90;;;;;;5059435;28;20029;-68
2023/04/27 07:49:45;;;;;;;7.38;3.40;;;8.20;99.90;;;;;;5060722;28;20021;-66
2023/04/27 07:52:11;;;;;;;9.13;3.80;;;8.30;99.90;;;;;;5054968;28;20093;-68
2023/04/27 07:54:37;;;;;;;13.10;3.75;;;8.30;99.90;;;;;;5056095;28;20063;-68
2023/04/27 07:57:12;;;;;;;9.80;3.63;;;8.30;99.90;;;;;;5056353;28;20057;-69
2023/04/27 07:59:38;;;;;;;12.52;4.30;;;8.20;99.90;;;;;;5059525;28;20100;-69
2023/04/27 08:02:04;;;;;;;9.77;3.97;;;8.10;99.90;;;;;;5059975;28;20028;-66
2023/04/27 08:04:30;;;;;;;13.77;3.78;;;8.20;99.90;;;;;;5061308;28;20099;-70
2023/04/27 08:06:55;;;;;;;9.45;3.90;;;8.40;99.90;;;;;;5063594;28;20025;-68
2023/04/27 08:09:21;;;;;;;10.02;3.00;;;8.60;99.90;;;;;;5062320;28;20029;-68
2023/04/27 08:11:46;;;;;;;8.27;3.42;;;8.80;99.90;;;;;;5063019;28;20033;-69
2023/04/27 08:14:12;;;;;;;7.40;3.50;;;8.80;99.90;;;;;;5065038;28;20033;-69
2023/04/27 08:16:40;;;;;;;9.95;3.45;;;8.90;99.90;;;;;;5065564;28;20055;-69
2023/04/27 08:19:08;;;;;;;6.97;4.00;;;9.00;99.90;;;;;;5063935;28;20025;-68
2023/04/27 08:21:33;;;;;;;6.28;3.10;;;9.10;99.90;;;;;;5065373;28;20032;-67
2023/04/27 08:23:59;;;;;;;8.00;3.22;;;9.30;99.90;;;;;;5064670;28;20082;-67
2023/04/27 08:26:25;;;;;;;10.23;3.28;;;9.40;99.90;;;;;;5065038;28;20021;-67
2023/04/27 08:28:51;;;;;;;5.28;2.90;;;9.50;99.90;;;;;;5062019;28;20025;-66
2023/04/27 08:31:17;;;;;;;10.05;3.28;;;9.50;99.90;;;;;;5061114;28;20032;-69
2023/04/27 08:33:43;;;;;;;8.25;3.40;;;9.40;99.90;;;;;;5062479;28;20025;-69
2023/04/27 08:36:08;;;;;;;8.25;3.35;;;9.30;99.90;;;;;;5062138;28;20056;-69
2023/04/27 08:38:34;;;;;;;8.38;3.72;;;9.40;99.90;;;;;;5062688;28;20024;-69
2023/04/27 08:41:00;;;;;;;9.45;3.50;;;9.60;99.90;;;;;;5062576;28;20059;-69
2023/04/27 08:43:26;;;;;;;8.55;3.58;;;9.80;99.90;;;;;;5062139;28;20036;-68
2023/04/27 08:45:52;;;;;;;8.90;3.20;;;10.10;99.90;;;;;;5063469;28;20101;-69
2023/04/27 08:48:19;;;;;;;5.95;3.30;;;10.40;99.90;;;;;;5063439;28;20025;-70
2023/04/27 08:50:49;;;;;;;6.68;3.10;;;10.60;99.90;;;;;;5060567;28;20021;-68
2023/04/27 08:53:19;;;;;;;9.35;3.15;;;10.70;99.90;;;;;;5064685;28;20021;-70
2023/04/27 08:55:45;;;;;;;8.30;3.53;;;11.00;99.90;;;;;;5062588;28;20032;-71
2023/04/27 08:58:10;;;;;;;8.93;3.35;;;11.20;99.90;;;;;;5064319;28;20029;-69
2023/04/27 09:00:40;;;;;;;7.32;3.05;;;11.30;99.90;;;;;;5062933;28;20043;-69
2023/04/27 09:03:08;;;;;;;4.82;3.22;;;11.50;99.90;;;;;;5064471;28;20053;-70
2023/04/27 09:05:33;;;;;;;7.43;3.00;;;11.70;99.90;;;;;;5061879;28;20033;-69
2023/04/27 09:08:07;;;;;;;5.05;3.05;;;11.80;99.90;;;;;;5062926;28;20029;-70
2023/04/27 09:10:43;;;;;;;9.75;3.38;;;12.00;99.90;;;;;;5062046;28;20043;-68
2023/04/27 09:13:09;;;;;;;7.35;3.25;;;12.20;99.90;;;;;;5057845;28;20055;-67
2023/04/27 09:15:43;;;;;;;7.03;3.30;;;12.10;99.90;;;;;;5057390;28;20029;-65
2023/04/27 09:18:16;;;;;;;6.68;3.13;;;11.80;99.90;;;;;;5062060;28;20082;-66
2023/04/27 09:20:42;;;;;;;7.05;3.25;;;11.50;99.90;;;;;;5062508;28;20043;-66
2023/04/27 09:23:08;;;;;;;7.75;3.60;;;11.20;99.90;;;;;;5062759;28;20036;-69
2023/04/27 09:25:34;;;;;;;6.07;3.55;;;11.10;99.90;;;;;;5062489;28;20690;-66
2023/04/27 09:28:00;;;;;;;11.13;3.80;;;11.10;99.90;;;;;;5062432;28;20056;-67
2023/04/27 09:30:28;;;;;;;8.85;3.60;;;11.30;99.90;;;;;;5064164;28;20084;-66
2023/04/27 09:32:59;;;;;;;13.02;3.85;;;11.60;99.90;;;;;;5063442;28;20024;-65
2023/04/27 09:35:32;;;;;;;7.63;3.20;;;11.70;99.90;;;;;;5063836;28;20033;-66
2023/04/27 09:37:59;;;;;;;9.00;3.67;;;11.80;99.90;;;;;;5063771;28;20025;-66
2023/04/27 09:40:30;;;;;;;7.82;3.70;;;11.80;99.90;;;;;;5059473;28;20132;-66
2023/04/27 09:42:59;;;;;;;8.07;3.25;;;11.80;99.90;;;;;;5063868;28;20036;-68
2023/04/27 09:45:25;;;;;;;9.27;3.58;;;11.60;99.90;;;;;;5062996;28;20064;-66
2023/04/27 09:47:51;;;;;;;8.98;3.67;;;11.40;99.90;;;;;;5062699;28;20028;-68
2023/04/27 09:50:17;;;;;;;8.02;3.88;;;11.20;99.90;;;;;;5060350;28;20148;-69
2023/04/27 09:52:45;;;;;;;6.80;3.58;;;11.20;99.90;;;;;;5060327;28;20639;-67
2023/04/27 09:55:15;;;;;;;7.25;3.65;;;11.50;99.90;;;;;;5058530;28;20170;-69
2023/04/27 09:57:57;;;;;;;8.15;3.50;;;11.70;99.90;;;;;;5061030;28;20041;-68
2023/04/27 10:00:42;;;;;;;10.20;3.72;;;11.80;99.90;;;;;;5057524;28;20037;-67
2023/04/27 10:03:31;;;;;;;11.95;3.58;;;11.60;99.90;;;;;;5058219;28;20033;-67
2023/04/27 10:06:35;;;;;;;7.07;3.38;;;11.50;99.90;;;;;;5058543;28;20067;-68
2023/04/27 10:09:05;;;;;;;10.13;3.97;;;11.30;99.90;;;;;;5059392;28;20093;-66
2023/04/27 10:11:46;;;;;;;9.45;3.72;;;11.10;99.90;;;;;;5057383;28;20780;-67
2023/04/27 10:14:18;;;;;;;8.77;3.47;;;10.80;99.90;;;;;;5060015;28;20565;-66
2023/04/27 10:16:51;;;;;;;7.53;3.95;;;10.60;99.90;;;;;;5058932;28;20033;-68
2023/04/27 10:19:17;;;;;;;10.93;3.75;;;10.60;99.90;;;;;;5056994;28;20053;-68
2023/04/27 10:21:56;;;;;;;7.43;3.60;;;10.60;99.90;;;;;;5061447;28;20049;-69
2023/04/27 10:24:39;;;;;;;6.10;3.60;;;10.70;99.90;;;;;;5061852;28;20048;-68
2023/04/27 10:27:15;;;;;;;11.10;3.92;;;10.90;99.90;;;;;;5059998;28;20051;-68
2023/04/27 10:29:46;;;;;;;5.38;3.70;;;11.30;99.90;;;;;;5056907;28;20029;-67
2023/04/27 10:32:19;;;;;;;7.85;4.00;;;11.60;99.90;;;;;;5060246;28;20545;-68
2023/04/27 10:34:47;;;;;;;6.40;3.80;;;11.80;99.90;;;;;;5060338;28;20071;-70
2023/04/27 10:37:15;;;;;;;6.05;3.80;;;12.00;99.90;;;;;;5059963;28;20028;-70
2023/04/27 10:39:42;;;;;;;6.70;3.58;;;12.10;99.90;;;;;;5058962;28;20021;-68
2023/04/27 10:42:08;;;;;;;8.20;3.47;;;12.20;99.90;;;;;;5057872;28;20025;-69
2023/04/27 10:44:35;;;;;;;6.30;3.40;;;12.30;99.90;;;;;;5060987;28;20040;-66
2023/04/27 10:47:15;;;;;;;7.45;3.95;;;12.30;99.90;;;;;;5062067;28;20132;-65
2023/04/27 10:49:41;;;;;;;6.28;3.22;;;12.40;99.90;;;;;;5062250;28;20017;-69
2023/04/27 10:52:08;;;;;;;6.28;3.28;;;12.60;99.90;;;;;;5062719;28;20030;-67
2023/04/27 10:54:35;;;;;;;7.00;3.63;;;13.00;99.90;;;;;;5060599;28;20028;-69
2023/04/27 10:57:08;;;;;;;8.05;3.80;;;13.20;99.90;;;;;;5062190;28;20074;-66
2023/04/27 10:59:46;;;;;;;6.30;3.07;;;13.60;99.90;;;;;;5062346;28;20104;-66
2023/04/27 11:02:12;;;;;;;9.43;4.50;;;13.70;99.90;;;;;;5062143;28;20036;-71
2023/04/27 11:04:39;;;;;;;9.73;3.65;;;13.40;99.90;;;;;;5062609;28;20029;-69
2023/04/27 11:07:07;;;;;;;8.40;3.53;;;13.40;99.90;;;;;;5062434;28;20021;-70
2023/04/27 11:09:35;;;;;;;7.50;3.38;;;13.40;99.90;;;;;;5060276;28;20028;-68
2023/04/27 11:12:01;;;;;;;6.93;3.90;;;13.70;99.90;;;;;;5061150;28;20020;-66
2023/04/27 11:14:27;;;;;;;7.88;4.20;;;14.00;99.90;;;;;;5061890;28;20021;-66
2023/04/27 11:16:53;;;;;;;6.57;3.72;;;14.00;99.90;;;;;;5061323;28;20096;-69
2023/04/27 11:19:19;;;;;;;5.53;3.40;;;14.40;99.90;;;;;;5061812;28;20083;-67
2023/04/27 11:21:45;;;;;;;5.72;3.60;;;14.80;99.90;;;;;;5062315;28;20037;-68
2023/04/27 11:24:11;;;;;;;8.80;4.32;;;15.20;99.90;;;;;;5061724;28;20028;-69
2023/04/27 11:26:37;;;;;;;10.38;4.45;;;15.40;99.90;;;;;;5062314;28;20452;-67
2023/04/27 11:29:12;;;;;;;8.43;4.72;;;15.50;99.90;;;;;;5062209;28;20410;-68
2023/04/27 11:31:47;;;;;;;7.65;4.45;;;15.20;99.90;;;;;;5061627;28;20029;-68
2023/04/27 11:34:21;;;;;;;6.55;4.43;;;14.80;99.90;;;;;;5062083;28;20032;-68
2023/04/27 11:37:08;;;;;;;7.13;4.45;;;14.50;99.90;;;;;;5061960;28;20036;-68
2023/04/27 11:39:36;;;;;;;9.38;3.78;;;14.30;99.90;;;;;;5060849;28;20021;-69
2023/04/27 11:42:21;;;;;;;8.05;4.13;;;14.10;99.90;;;;;;5061404;28;20140;-69
2023/04/27 11:44:58;;;;;;;7.28;3.70;;;14.00;99.90;;;;;;5061159;28;20060;-68
2023/04/27 11:47:26;;;;;;;6.95;3.90;;;13.90;99.90;;;;;;5061732;28;20481;-68
2023/04/27 11:49:55;;;;;;;7.97;5.00;;;13.90;99.90;;;;;;5061615;28;20023;-66
2023/04/27 11:52:21;;;;;;;7.10;4.68;;;13.70;99.90;;;;;;5059871;28;20025;-69
2023/04/27 11:54:49;;;;;;;9.23;5.13;;;13.50;99.90;;;;;;5059684;28;20071;-68
2023/04/27 11:57:15;;;;;;;7.93;4.53;;;13.50;99.90;;;;;;5061901;28;20043;-69
2023/04/27 11:59:41;;;;;;;10.35;5.00;;;13.40;99.90;;;;;;5061354;28;20540;-70
2023/04/27 12:02:07;;;;;;;10.27;4.95;;;13.30;99.90;;;;;;5061818;28;20013;-68
2023/04/27 12:04:33;;;;;;;9.98;5.03;;;13.20;99.90;;;;;;5061708;28;20094;-66
2023/04/27 12:07:01;;;;;;;8.20;4.72;;;13.20;99.90;;;;;;5061275;28;20068;-67
2023/04/27 12:09:27;;;;;;;10.85;4.82;;;13.10;99.90;;;;;;5061821;28;20025;-69
2023/04/27 12:11:53;;;;;;;9.00;4.60;;;13.00;99.90;;;;;;5061112;28;20013;-68
2023/04/27 12:14:19;;;;;;;6.82;4.97;;;13.00;99.90;;;;;;5061087;28;20395;-70
2023/04/27 12:16:45;;;;;;;11.23;4.72;;;12.90;99.90;;;;;;5061509;28;20060;-68
2023/04/27 12:19:10;;;;;;;8.18;5.03;;;12.80;99.90;;;;;;5061733;28;20066;-67
2023/04/27 12:21:36;;;;;;;9.90;4.80;;;12.70;99.90;;;;;;5061345;28;20021;-67
2023/04/27 12:24:02;;;;;;;8.07;4.88;;;12.60;99.90;;;;;;5061370;28;20602;-69
2023/04/27 12:26:28;;;;;;;10.57;4.65;;;12.60;99.90;;;;;;5059987;28;20060;-69
2023/04/27 12:28:53;;;;;;;6.90;5.00;;;12.60;99.90;;;;;;5060901;28;20055;-67
2023/04/27 12:31:23;;;;;;;9.10;5.35;;;12.50;99.90;;;;;;5061525;28;20746;-68
2023/04/27 12:33:49;;;;;;;10.60;5.43;;;12.50;99.90;;;;;;5061109;28;20029;-67
2023/04/27 12:36:16;;;;;;;7.28;5.40;;;12.50;99.90;;;;;;5061415;28;20021;-69
2023/04/27 12:38:42;;;;;;;9.40;5.20;;;12.50;99.90;;;;;;5061508;28;20025;-68
2023/04/27 12:41:08;;;;;;;8.48;4.70;;;12.40;99.90;;;;;;5060591;28;20066;-68
2023/04/27 12:43:36;;;;;;;13.48;5.78;;;12.50;99.90;;;;;;5061266;28;20115;-68
2023/04/27 12:46:02;;;;;;;9.45;5.28;;;12.40;99.90;;;;;;5060322;28;20041;-67
2023/04/27 12:48:27;;;;;;;9.77;5.45;;;12.30;99.90;;;;;;5060829;28;20040;-65